createdAt,value
2024-05-09T00:04:30.791Z,6
2024-05-09T00:09:43.544Z,5
2024-05-09T00:14:56.288Z,6
2024-05-09T00:20:09.090Z,7
2024-05-09T00:25:21.798Z,9
2024-05-09T00:30:34.624Z,8
2024-05-09T00:35:47.312Z,8
2024-05-09T00:41:00.086Z,8
2024-05-09T00:46:12.741Z,8
2024-05-09T00:51:25.369Z,6
2024-05-09T00:56:38.282Z,6
2024-05-09T01:01:50.863Z,5
2024-05-09T01:07:03.677Z,5
2024-05-09T01:12:16.388Z,5
2024-05-09T01:17:29.139Z,5
2024-05-09T01:22:41.858Z,6
2024-05-09T01:27:54.578Z,6
2024-05-09T01:33:07.275Z,5
2024-05-09T01:38:19.978Z,6
2024-05-09T01:43:32.931Z,6
2024-05-09T01:48:45.600Z,10
2024-05-09T01:53:58.281Z,5
2024-05-09T01:59:11.112Z,6
2024-05-09T02:04:23.794Z,5
2024-05-09T02:09:36.584Z,6
2024-05-09T02:14:49.260Z,5
2024-05-09T02:20:02.041Z,7
2024-05-09T02:25:14.716Z,6
2024-05-09T02:30:27.484Z,5
2024-05-09T02:35:39.186Z,4
2024-05-09T02:40:51.875Z,4
2024-05-09T02:46:04.717Z,5
2024-05-09T02:51:23.651Z,6
2024-05-09T02:56:36.347Z,5
2024-05-09T03:01:49.145Z,5
2024-05-09T03:07:02.070Z,4
2024-05-09T03:12:14.933Z,7
2024-05-09T03:17:27.681Z,5
2024-05-09T03:22:40.415Z,5
2024-05-09T03:33:05.965Z,6
2024-05-09T03:38:18.826Z,7
2024-05-09T03:43:31.506Z,4
2024-05-09T03:48:44.294Z,7
2024-05-09T03:53:57.110Z,8
2024-05-09T03:59:09.849Z,10
2024-05-09T04:04:22.671Z,8
2024-05-09T04:09:35.263Z,9
2024-05-09T04:14:47.903Z,8
2024-05-09T04:20:00.688Z,7
2024-05-09T04:25:13.389Z,10
2024-05-09T04:30:26.209Z,13
2024-05-09T04:35:38.973Z,12
2024-05-09T04:40:51.688Z,10
2024-05-09T04:46:04.348Z,8
2024-05-09T04:51:17.158Z,10
2024-05-09T04:56:30.158Z,7
2024-05-09T05:01:42.904Z,12
2024-05-09T05:06:55.546Z,8
2024-05-09T05:12:08.452Z,13
2024-05-09T05:17:21.127Z,8
2024-05-09T05:22:34.024Z,7
2024-05-09T05:27:46.744Z,7
2024-05-09T05:32:59.477Z,9
2024-05-09T05:38:11.767Z,8
2024-05-09T05:43:24.546Z,8
2024-05-09T05:48:37.789Z,7
2024-05-09T05:53:50.636Z,9
2024-05-09T05:59:03.418Z,9
2024-05-09T06:04:16.232Z,12
2024-05-09T06:09:29.106Z,11
2024-05-09T06:14:42.015Z,7
2024-05-09T06:19:54.812Z,9
2024-05-09T06:25:07.570Z,8
2024-05-09T06:30:20.553Z,10
2024-05-09T06:35:33.350Z,9
2024-05-09T06:40:46.315Z,5
2024-05-09T06:45:59.369Z,10
2024-05-09T06:51:12.251Z,9
2024-05-09T06:56:25.088Z,12
2024-05-09T07:01:37.965Z,9
2024-05-09T07:06:50.785Z,7
2024-05-09T07:12:03.465Z,9
2024-05-09T07:17:16.218Z,5
2024-05-09T07:22:29.159Z,7
2024-05-09T07:27:41.872Z,10
2024-05-09T07:32:54.569Z,12
2024-05-09T07:38:07.318Z,10
2024-05-09T07:43:20.031Z,11
2024-05-09T07:48:32.839Z,12
2024-05-09T07:53:45.546Z,13
2024-05-09T07:58:58.326Z,20
2024-05-09T08:04:10.947Z,12
2024-05-09T08:09:23.625Z,11
2024-05-09T08:14:36.526Z,10
2024-05-09T08:19:49.374Z,12
2024-05-09T08:25:01.996Z,10
2024-05-09T08:30:13.647Z,12
2024-05-09T08:35:26.425Z,12
2024-05-09T08:40:39.247Z,23
2024-05-09T08:45:51.921Z,23
2024-05-09T08:51:04.644Z,19
2024-05-09T08:56:17.380Z,24
2024-05-09T09:01:29.973Z,16
2024-05-09T09:06:42.647Z,20
2024-05-09T09:11:55.549Z,26
2024-05-09T09:17:08.197Z,15
2024-05-09T09:22:20.869Z,19
2024-05-09T09:27:33.510Z,20
2024-05-09T09:32:46.200Z,20
2024-05-09T09:37:58.808Z,27
2024-05-09T09:43:11.393Z,16
2024-05-09T09:48:24.186Z,21
2024-05-09T09:53:37.060Z,19
2024-05-09T09:58:49.754Z,27
2024-05-09T10:04:02.318Z,24
2024-05-09T10:09:15.232Z,25
2024-05-09T10:14:27.781Z,31
2024-05-09T10:19:40.487Z,14
2024-05-09T10:24:52.878Z,21
2024-05-09T10:30:05.464Z,32
2024-05-09T10:35:18.270Z,28
2024-05-09T10:40:30.933Z,23
2024-05-09T10:45:43.613Z,30
2024-05-09T10:50:56.365Z,22
2024-05-09T10:56:08.955Z,20
2024-05-09T11:01:21.558Z,28
2024-05-09T11:06:34.102Z,26
2024-05-09T11:11:47.325Z,27
2024-05-09T11:16:59.041Z,35
2024-05-09T11:22:11.686Z,28
2024-05-09T11:27:24.338Z,25
2024-05-09T11:32:43.332Z,20
2024-05-09T11:37:56.041Z,26
2024-05-09T11:43:08.725Z,20
2024-05-09T11:48:21.486Z,21
2024-05-09T11:53:34.137Z,19
2024-05-09T11:58:46.994Z,24
2024-05-09T12:03:59.843Z,37
2024-05-09T12:09:12.520Z,26
2024-05-09T12:14:25.279Z,18
2024-05-09T12:19:37.921Z,21
2024-05-09T12:24:50.636Z,12
2024-05-09T12:30:03.389Z,14
2024-05-09T12:35:16.211Z,17
2024-05-09T12:40:28.967Z,28
2024-05-09T12:45:41.837Z,39
2024-05-09T12:50:54.627Z,23
2024-05-09T12:56:07.438Z,34
2024-05-09T13:01:20.124Z,28
2024-05-09T13:06:32.743Z,26
2024-05-09T13:11:45.335Z,33
2024-05-09T13:16:58.165Z,26
2024-05-09T13:22:10.668Z,28
2024-05-09T13:27:23.539Z,41
2024-05-09T13:32:36.346Z,37
2024-05-09T13:37:48.816Z,39
2024-05-09T13:43:01.377Z,54
2024-05-09T13:48:13.753Z,26
2024-05-09T13:53:26.396Z,37
2024-05-09T13:58:39.100Z,35
2024-05-09T14:03:51.790Z,35
2024-05-09T14:09:04.438Z,31
2024-05-09T14:14:17.280Z,27
2024-05-09T14:19:28.973Z,24
2024-05-09T14:24:41.633Z,24
2024-05-09T14:29:54.167Z,30
2024-05-09T14:35:06.612Z,25
2024-05-09T14:40:19.408Z,35
2024-05-09T14:45:31.998Z,18
2024-05-09T14:50:44.780Z,25
2024-05-09T14:55:57.442Z,27
2024-05-09T15:01:10.003Z,34
2024-05-09T15:06:22.625Z,30
2024-05-09T15:11:35.390Z,24
2024-05-09T15:16:48.200Z,64
2024-05-09T15:22:01.101Z,36
2024-05-09T15:27:13.689Z,33
2024-05-09T15:32:26.316Z,26
2024-05-09T15:37:38.894Z,29
2024-05-09T15:42:51.538Z,28
2024-05-09T15:48:04.153Z,29
2024-05-09T15:53:16.370Z,40
2024-05-09T16:03:41.729Z,40
2024-05-09T16:08:54.544Z,44
2024-05-09T16:14:07.203Z,43
2024-05-09T16:19:20.018Z,26
2024-05-09T16:24:32.710Z,25
2024-05-09T16:29:45.341Z,25
2024-05-09T16:34:57.802Z,30
2024-05-09T16:40:10.355Z,43
2024-05-09T16:45:22.964Z,39
2024-05-09T16:50:35.873Z,37
2024-05-09T16:55:48.477Z,36
2024-05-09T17:01:01.061Z,28
2024-05-09T17:06:13.521Z,25
2024-05-09T17:11:24.977Z,31
2024-05-09T17:16:37.639Z,28
2024-05-09T17:21:50.294Z,25
2024-05-09T17:27:02.902Z,34
2024-05-09T17:32:15.545Z,36
2024-05-09T17:37:28.184Z,38
2024-05-09T17:42:40.697Z,25
2024-05-09T17:47:53.547Z,31
2024-05-09T17:53:06.021Z,27
2024-05-09T17:58:18.534Z,26
2024-05-09T18:03:31.279Z,22
2024-05-09T18:08:43.952Z,36
2024-05-09T18:13:56.657Z,26
2024-05-09T18:19:09.233Z,30
2024-05-09T18:24:21.882Z,34
2024-05-09T18:29:34.551Z,23
2024-05-09T18:34:47.350Z,14
2024-05-09T18:40:00.121Z,26
2024-05-09T18:45:12.743Z,23
2024-05-09T18:50:25.295Z,32
2024-05-09T18:55:38.019Z,21
2024-05-09T19:00:50.659Z,19
2024-05-09T19:06:03.448Z,26
2024-05-09T19:11:16.040Z,12
2024-05-09T19:16:28.571Z,35
2024-05-09T19:21:41.167Z,14
2024-05-09T19:26:53.833Z,13
2024-05-09T19:32:06.461Z,19
2024-05-09T19:37:19.025Z,22
2024-05-09T19:42:31.621Z,32
2024-05-09T19:47:44.186Z,22
2024-05-09T19:52:56.771Z,14
2024-05-09T19:58:08.457Z,9
2024-05-09T20:03:21.016Z,7
2024-05-09T20:08:33.478Z,12
2024-05-09T20:13:52.200Z,11
2024-05-09T20:19:04.791Z,10
2024-05-09T20:24:17.439Z,8
2024-05-09T20:29:30.115Z,16
2024-05-09T20:34:43.301Z,12
2024-05-09T20:39:55.962Z,13
2024-05-09T20:45:08.596Z,17
2024-05-09T20:50:21.295Z,9
2024-05-09T20:55:34.055Z,11
2024-05-09T21:00:46.912Z,16
2024-05-09T21:05:59.595Z,5
2024-05-09T21:11:12.376Z,9
2024-05-09T21:16:25.003Z,10
2024-05-09T21:21:37.810Z,9
2024-05-09T21:26:50.401Z,9
2024-05-09T21:32:02.923Z,15
2024-05-09T21:37:15.647Z,12
2024-05-09T21:42:28.267Z,13
2024-05-09T21:47:41.089Z,12
2024-05-09T21:52:53.718Z,7
2024-05-09T21:58:06.434Z,8
2024-05-09T22:03:19.149Z,13
2024-05-09T22:08:31.921Z,10
2024-05-09T22:13:44.590Z,13
2024-05-09T22:18:57.293Z,11
2024-05-09T22:24:09.976Z,8
2024-05-09T22:29:22.875Z,9
2024-05-09T22:34:35.527Z,10
2024-05-09T22:39:48.282Z,10
2024-05-09T22:45:00.952Z,10
2024-05-09T22:50:13.589Z,11
2024-05-09T22:55:26.407Z,7
2024-05-09T23:00:38.098Z,6
2024-05-09T23:05:51.036Z,6
2024-05-09T23:11:03.714Z,8
2024-05-09T23:16:16.339Z,12
2024-05-09T23:21:29.079Z,10
2024-05-09T23:26:41.761Z,8
2024-05-09T23:31:54.623Z,8
2024-05-09T23:37:07.362Z,7
2024-05-09T23:42:19.998Z,10
2024-05-09T23:47:32.793Z,9
2024-05-09T23:52:45.565Z,11
2024-05-09T23:57:58.155Z,11
